Wilson Heron — 9HJW9 — position and weather

sailwx.info

Track history (hours):
 
Tides and Currents Weather Stations Pressure Air Temp Water Temp Dewpoint Dewpoint Depression Visibility Wind Speed Wind Dir Waves Ship Positions

Wilson Heron

Last reported at 2017-May-28 02:27 UTC. Time now 2017-May-28 02:50 UTC.
Position N 51°05' E 003°45'.

Length 91 m; draft 4.1 m.

Type: Cargo ship. MMSI: 249075000.

Date/timePositionNaut miles runAvg speedWind from/ knotsBaromVisibWave heightAir tempDewpointWater temp
2017-May-28 02:27N 51°05' E 003°45'0 0.0
2017-May-28 01:57N 51°05' E 003°45'0 0.0
2017-May-28 01:30N 51°05' E 003°45'0 0.0
2017-May-28 00:57N 51°05' E 003°45'0 0.0
2017-May-28 00:27N 51°05' E 003°45'0 0.0
2017-May-28 00:00N 51°05' E 003°45'0 0.0
2017-May-27 23:27N 51°05' E 003°45'0 0.0
2017-May-27 23:00N 51°05' E 003°45'0 0.0
2017-May-27 22:27N 51°05' E 003°45'0 0.0
2017-May-27 22:00N 51°05' E 003°45'0 0.0
2017-May-27 21:27N 51°05' E 003°45'0 0.0
2017-May-27 21:00N 51°05' E 003°45'0 0.0
2017-May-27 20:24N 51°05' E 003°45'0 0.0
2017-May-27 19:57N 51°05' E 003°45'0 0.0
2017-May-27 19:27N 51°05' E 003°45'0 0.0
2017-May-27 19:00N 51°05' E 003°45'0 0.0
2017-May-27 18:27N 51°05' E 003°45'0 0.0
2017-May-27 18:00N 51°05' E 003°45'0 0.0
2017-May-27 17:30N 51°05' E 003°45'0 0.0
2017-May-27 16:54N 51°05' E 003°45'0 0.0
2017-May-27 16:30N 51°05' E 003°45'0 0.0
2017-May-27 15:57N 51°05' E 003°45'0 0.0
2017-May-27 15:30N 51°05' E 003°45'0 0.0
2017-May-27 14:57N 51°05' E 003°45'0 0.0
2017-May-27 14:00N 51°05' E 003°45'0 0.0
2017-May-27 13:21N 51°05' E 003°45'0 0.0
2017-May-27 13:01N 51°05' E 003°45'1 1.7
2017-May-27 12:30N 51°06' E 003°45'4 8.1
2017-May-27 12:00N 51°10' E 003°47'4 8.8
2017-May-27 11:30N 51°14' E 003°49'4 8.0
2017-May-27 11:00N 51°18' E 003°50'2 3.4
2017-May-27 10:30N 51°20' E 003°49'1 1.5
2017-May-27 10:00N 51°20' E 003°49'0 0.1
2017-May-27 09:30N 51°20' E 003°49'2 4.8
2017-May-27 09:00N 51°22' E 003°45'3 6.6
2017-May-27 08:30N 51°24' E 003°42'5 9.5
2017-May-27 08:00N 51°26' E 003°35'4 8.3
2017-May-27 07:30N 51°29' E 003°30'510.9
2017-May-27 07:01N 51°33' E 003°25'4 8.8
2017-May-27 06:30N 51°37' E 003°21'510.6
2017-May-27 06:00N 51°42' E 003°17'6 8.8
2017-May-27 05:16N 51°48' E 003°15'3 6.8
2017-May-27 04:51N 51°51' E 003°16'9 5.4
2017-May-27 03:14N 51°59' E 003°20'1 5.3
2017-May-27 02:57N 52°00' E 003°22'2 5.0
2017-May-27 02:29N 52°02' E 003°24'2 4.9
2017-May-27 02:00N 52°03' E 003°28'3 5.3
2017-May-27 01:30N 52°03' E 003°32'3 5.1
2017-May-27 01:00N 52°03' E 003°36'3 5.3
2017-May-27 00:30N 52°03' E 003°40'3 5.2
2017-May-27 00:00N 52°03' E 003°44'3 5.2
2017-May-26 23:30N 52°02' E 003°49'3 5.5
2017-May-26 23:00N 52°02' E 003°53'5 9.7
2017-May-26 22:30N 52°00' E 004°00'713.4
2017-May-26 22:01N 51°57' E 004°10'713.1
2017-May-26 21:31N 51°54' E 004°19'510.8
2017-May-26 21:01N 51°54' E 004°28'0 0.5
2017-May-26 20:28N 51°54' E 004°28'0 0.0
2017-May-26 19:58N 51°54' E 004°28'0 0.0
2017-May-26 19:28N 51°54' E 004°28'0 0.0
2017-May-26 18:58N 51°54' E 004°28'0 0.0
2017-May-26 18:30N 51°54' E 004°28'0 0.2
2017-May-26 18:00N 51°54' E 004°28'3 6.2
2017-May-26 17:31N 51°54' E 004°23'3 5.4
2017-May-26 17:01N 51°52' E 004°20'3 6.9
2017-May-26 16:30N 51°50' E 004°26'2 4.2
2017-May-26 16:00N 51°50' E 004°29'2 4.2
2017-May-26 15:30N 51°50' E 004°32'4 7.8
2017-May-26 15:00N 51°47' E 004°37'6 5.9
2017-May-26 13:59N 51°42' E 004°35'0 0.0
2017-May-26 13:29N 51°42' E 004°35'0 0.0
2017-May-26 12:59N 51°42' E 004°35'0 0.0
2017-May-26 12:29N 51°42' E 004°35'0 0.0
2017-May-26 11:59N 51°42' E 004°35'0 0.0
2017-May-26 11:26N 51°42' E 004°35'0 0.0
2017-May-26 10:59N 51°42' E 004°35'0 0.0
2017-May-26 10:31N 51°42' E 004°35'0 0.0
2017-May-26 09:58N 51°42' E 004°35'0 0.0
2017-May-26 09:30N 51°42' E 004°35'0 0.0
2017-May-26 09:00N 51°42' E 004°35'0 0.0
2017-May-26 08:30N 51°42' E 004°35'0 0.0
2017-May-26 08:00N 51°42' E 004°35'0 0.0
2017-May-26 07:30N 51°42' E 004°35'0 0.0
2017-May-26 07:00N 51°42' E 004°35'0 0.0
2017-May-26 06:30N 51°42' E 004°35'0 0.0
2017-May-26 06:00N 51°42' E 004°35'0 0.0
2017-May-26 05:30N 51°42' E 004°35'0 0.0
2017-May-26 05:00N 51°42' E 004°35'0 0.0
2017-May-26 04:30N 51°42' E 004°35'0 0.0
2017-May-26 04:00N 51°42' E 004°35'0 0.0
2017-May-26 03:30N 51°42' E 004°35'0 0.0
2017-May-26 03:00N 51°42' E 004°35'0 0.0
2017-May-26 02:30N 51°42' E 004°35'0 0.0
2017-May-26 02:00N 51°42' E 004°35'0 0.0
2017-May-26 01:30N 51°42' E 004°35'0 0.0
2017-May-26 01:00N 51°42' E 004°35'0 0.0
2017-May-26 00:30N 51°42' E 004°35'0 0.0
2017-May-26 00:00N 51°42' E 004°35'0 0.0
2017-May-25 23:30N 51°42' E 004°35'0 0.0
2017-May-25 23:00N 51°42' E 004°35'0 0.0
2017-May-25 22:30N 51°42' E 004°35'0 0.0
2017-May-25 22:00N 51°42' E 004°35'0 0.0
2017-May-25 21:30N 51°42' E 004°35'0 0.0
2017-May-25 21:00N 51°42' E 004°35'0 0.0
2017-May-25 20:30N 51°42' E 004°35'0 0.0
2017-May-25 20:00N 51°42' E 004°35'0 0.0
2017-May-25 19:30N 51°42' E 004°35'0 0.0
2017-May-25 19:00N 51°42' E 004°35'0 0.0
2017-May-25 18:30N 51°42' E 004°35'0 0.0
2017-May-25 18:00N 51°42' E 004°35'0 0.0
2017-May-25 17:30N 51°42' E 004°35'0 0.0
2017-May-25 17:00N 51°42' E 004°35'0 0.0
2017-May-25 16:30N 51°42' E 004°35'0 0.0
2017-May-25 16:00N 51°42' E 004°35'0 0.0
2017-May-25 15:30N 51°42' E 004°35'0 0.0
2017-May-25 15:00N 51°42' E 004°35'0 0.0
2017-May-25 14:30N 51°42' E 004°35'0 0.0
2017-May-25 13:30N 51°42' E 004°35'0 0.0
2017-May-25 13:00N 51°42' E 004°35'0 0.0
2017-May-25 12:30N 51°42' E 004°35'0 0.0
2017-May-25 12:00N 51°42' E 004°35'0 0.0
2017-May-25 11:30N 51°42' E 004°35'0 0.0
2017-May-25 11:00N 51°42' E 004°35'0 0.0
2017-May-25 10:30N 51°42' E 004°35'0 0.0
2017-May-25 10:00N 51°42' E 004°35'0 0.0
2017-May-25 09:29N 51°42' E 004°35'0 0.0
2017-May-25 09:00N 51°42' E 004°35'0 0.0
2017-May-25 08:30N 51°42' E 004°35'0 0.0
2017-May-25 08:00N 51°42' E 004°35'0 0.0
2017-May-25 07:30N 51°42' E 004°35'0 0.0
2017-May-25 07:00N 51°42' E 004°35'0 0.0
2017-May-25 06:30N 51°42' E 004°35'0 0.0
2017-May-25 06:00N 51°42' E 004°35'0 0.0
2017-May-25 05:30N 51°42' E 004°35'0 0.0
2017-May-25 05:00N 51°42' E 004°35'0 0.0
2017-May-25 04:30N 51°42' E 004°35'0 0.0
2017-May-25 04:00N 51°42' E 004°35'0 0.0
2017-May-25 03:30N 51°42' E 004°35'0 0.0
2017-May-25 03:00N 51°42' E 004°35'0 0.0
2017-May-25 02:30N 51°42' E 004°35'0 0.0
2017-May-25 02:00N 51°42' E 004°35'0 0.0
2017-May-25 01:30N 51°42' E 004°35'0 0.0
2017-May-25 01:00N 51°42' E 004°35'0 0.0
2017-May-25 00:30N 51°42' E 004°35'0 0.0
2017-May-25 00:00N 51°42' E 004°35'0 0.0
2017-May-24 23:30N 51°42' E 004°35'0 0.0
2017-May-24 23:00N 51°42' E 004°35'0 0.0
2017-May-24 22:30N 51°42' E 004°35'0 0.0
2017-May-24 22:00N 51°42' E 004°35'0 0.0
2017-May-24 21:30N 51°42' E 004°35'0 0.0
2017-May-24 21:00N 51°42' E 004°35'0 0.0
2017-May-24 20:30N 51°42' E 004°35'0 0.0
2017-May-24 19:59N 51°42' E 004°35'0 0.0
2017-May-24 19:30N 51°42' E 004°35'0 0.0
2017-May-24 19:00N 51°42' E 004°35'0 0.0
2017-May-24 18:30N 51°42' E 004°35'0 0.0
2017-May-24 18:00N 51°42' E 004°35'0 0.0
2017-May-24 17:30N 51°42' E 004°35'0 0.0
2017-May-24 17:00N 51°42' E 004°35'0 0.0
2017-May-24 16:30N 51°42' E 004°35'0 0.0
2017-May-24 16:00N 51°42' E 004°35'0 0.0
2017-May-24 15:30N 51°42' E 004°35'0 0.0
2017-May-24 14:57N 51°42' E 004°35'0 0.0
2017-May-24 14:30N 51°42' E 004°35'0 0.0
2017-May-24 13:30N 51°42' E 004°35'0 0.0
2017-May-24 13:00N 51°42' E 004°35'0 0.0
2017-May-24 12:30N 51°42' E 004°35'0 0.0
2017-May-24 12:00N 51°42' E 004°35'0 0.0
2017-May-24 11:29N 51°42' E 004°35'0 0.0
2017-May-24 11:00N 51°42' E 004°35'0 0.0
2017-May-24 10:30N 51°42' E 004°35'0 0.0
2017-May-24 10:00N 51°42' E 004°35'3 5.5
2017-May-24 09:30N 51°44' E 004°38'4 7.9
2017-May-24 09:01N 51°48' E 004°37'4 7.4
2017-May-24 08:30N 51°50' E 004°32'4 8.1
2017-May-24 08:01N 51°50' E 004°26'4 7.6
2017-May-24 07:31N 51°52' E 004°20'4 7.7
2017-May-24 07:00N 51°54' E 004°15'4 8.4
2017-May-24 06:30N 51°57' E 004°10'4 7.9
2017-May-24 06:00N 51°59' E 004°05'4 8.4
2017-May-24 05:30N 51°60' E 003°58'5 9.9
2017-May-24 05:00N 52°00' E 003°50'4 7.4
2017-May-24 04:30N 52°03' E 003°47'510.4
2017-May-24 04:00N 52°09' E 003°46'510.1
2017-May-24 03:29N 52°14' E 003°46'5 9.7
2017-May-24 03:00N 52°18' E 003°48'5 9.5
2017-May-24 02:30N 52°23' E 003°49'5 9.2
2017-May-24 02:00N 52°28' E 003°51'6 9.0
2017-May-24 01:22N 52°33' E 003°53'3 8.5
2017-May-24 01:00N 52°36' E 003°54'4 8.5
2017-May-24 00:30N 52°40' E 003°55'4 8.9
2017-May-24 00:00N 52°45' E 003°56'5 9.4
2017-May-23 23:30N 52°49' E 003°57'4 9.1
2017-May-23 23:00N 52°54' E 003°59'6 9.2
2017-May-23 22:23N 52°59' E 004°02'4 9.9
2017-May-23 22:00N 53°02' E 004°07'510.0
2017-May-23 21:30N 53°05' E 004°13'510.0
2017-May-23 21:00N 53°08' E 004°20'5 9.8
2017-May-23 20:29N 53°12' E 004°25'910.0
2017-May-23 19:34N 53°21' E 004°30'410.3
2017-May-23 19:09N 53°25' E 004°32'210.3
2017-May-23 18:59N 53°26' E 004°33'610.2
2017-May-23 18:27N 53°31' E 004°37'6 9.3
2017-May-23 17:47N 53°37' E 004°40'293 9.0
2017-May-22 09:16N 58°30' E 004°46'2 8.9
2017-May-22 09:00N 58°33' E 004°45'14 9.1
2017-May-22 07:27N 58°47' E 004°42'4 8.7
2017-May-22 07:00N 58°51' E 004°42'105 8.9
2017-May-21 19:08N 60°35' E 004°22'1 8.3
2017-May-21 19:00N 60°36' E 004°21'4 8.2
2017-May-21 18:30N 60°40' E 004°21'4 7.9
2017-May-21 18:00N 60°44' E 004°20'4 8.0
2017-May-21 17:30N 60°48' E 004°19'4 8.1
2017-May-21 17:00N 60°52' E 004°18'4 7.8
2017-May-21 16:30N 60°56' E 004°18'4 7.9
2017-May-21 16:00N 61°00' E 004°17'4 7.9
2017-May-21 15:30N 61°04' E 004°17'4 7.7
2017-May-21 15:00N 61°08' E 004°18'4 7.6
2017-May-21 14:30N 61°12' E 004°18'8 7.7
2017-May-21 13:30N 61°19' E 004°18'4 7.7
2017-May-21 13:00N 61°23' E 004°19'4 8.0
2017-May-21 12:30N 61°27' E 004°20'12 8.4
2017-May-21 11:01N 61°40' E 004°22'0 7.0
2017-May-21 11:00N 61°40' E 004°22'4 8.7
2017-May-21 10:30N 61°44' E 004°25'4 8.9
2017-May-21 10:00N 61°48' E 004°29'4 9.0
2017-May-21 09:30N 61°52' E 004°32'5 9.1
2017-May-21 09:00N 61°57' E 004°35'5 9.2
2017-May-21 08:30N 62°01' E 004°38'5 8.9
2017-May-21 08:00N 62°05' E 004°42'5 9.0
2017-May-21 07:30N 62°09' E 004°45'5 9.3
2017-May-21 07:00N 62°13' E 004°50'5 9.4
2017-May-21 06:30N 62°17' E 004°56'510.0
2017-May-21 06:00N 62°21' E 005°02'5 9.3
2017-May-21 05:30N 62°25' E 005°08'4 8.9
2017-May-21 05:00N 62°28' E 005°14'5 9.0
2017-May-21 04:30N 62°32' E 005°20'4 9.1
2017-May-21 04:00N 62°36' E 005°25'4 8.9
2017-May-21 03:30N 62°39' E 005°31'4 8.7
2017-May-21 03:00N 62°43' E 005°37'4 8.4
2017-May-21 02:30N 62°46' E 005°42'4 8.3
2017-May-21 02:00N 62°49' E 005°48'4 8.2
2017-May-21 01:30N 62°53' E 005°53'4 8.1
2017-May-21 01:00N 62°56' E 005°59'248 9.1
2017-May-19 21:40N 66°16' E 011°41'1 9.0
2017-May-19 21:30N 66°16' E 011°45'5 9.1
2017-May-19 21:00N 66°16' E 011°56'5 9.2
2017-May-19 20:30N 66°17' E 012°07'5 9.2
2017-May-19 20:00N 66°17' E 012°19'5 9.3
2017-May-19 19:30N 66°15' E 012°30'4 8.1
2017-May-19 19:00N 66°14' E 012°39'510.2
2017-May-19 18:30N 66°10' E 012°49'5 9.8
2017-May-19 18:00N 66°10' E 013°01'510.4
2017-May-19 17:30N 66°12' E 013°13'5 9.7
2017-May-19 17:00N 66°14' E 013°24'510.1
2017-May-19 16:30N 66°14' E 013°36'510.0
2017-May-19 16:00N 66°15' E 013°48'510.2
2017-May-19 15:29N 66°17' E 014°01'3 5.7
2017-May-19 15:00N 66°18' E 014°07'0 0.0
2017-May-19 14:00N 66°18' E 014°07'0 0.0
2017-May-19 13:30N 66°18' E 014°07'0 0.0
2017-May-19 13:00N 66°18' E 014°07'0 0.0
2017-May-19 12:30N 66°18' E 014°07'0 0.0
2017-May-19 12:00N 66°18' E 014°07'0 0.0
2017-May-19 11:30N 66°18' E 014°07'0 0.0
2017-May-19 11:00N 66°18' E 014°07'0 0.0
2017-May-19 10:30N 66°18' E 014°07'0 0.0
2017-May-19 10:00N 66°18' E 014°07'0 0.0
2017-May-19 09:30N 66°18' E 014°07'0 0.0
2017-May-19 09:00N 66°18' E 014°07'0 0.0
2017-May-19 08:30N 66°18' E 014°07'0 0.0
2017-May-19 08:00N 66°18' E 014°07'0 0.0
2017-May-19 07:30N 66°18' E 014°07'0 0.0
2017-May-19 07:00N 66°18' E 014°07'0 0.0
2017-May-19 06:30N 66°18' E 014°07'0 0.0
2017-May-19 06:00N 66°18' E 014°07'0 0.0
2017-May-19 05:30N 66°18' E 014°07'0 0.0
2017-May-19 05:00N 66°18' E 014°07'0 0.0
2017-May-19 04:30N 66°18' E 014°07'0 0.0
2017-May-19 04:00N 66°18' E 014°07'0 0.0
2017-May-19 03:30N 66°18' E 014°07'0 0.0
2017-May-19 03:00N 66°18' E 014°07'0 0.0
2017-May-19 02:30N 66°18' E 014°07'0 0.0
2017-May-19 02:00N 66°18' E 014°07'0 0.0
2017-May-19 01:30N 66°18' E 014°07'0 0.0
2017-May-19 01:00N 66°18' E 014°07'0 0.0
2017-May-19 00:30N 66°18' E 014°07'0 0.0
2017-May-19 00:00N 66°18' E 014°07'0 0.0
2017-May-18 23:30N 66°18' E 014°07'0 0.0
2017-May-18 23:00N 66°18' E 014°07'0 0.0
2017-May-18 22:30N 66°18' E 014°07'0 0.0
2017-May-18 21:57N 66°18' E 014°07'0 0.0
2017-May-18 21:30N 66°18' E 014°07'0 0.0
2017-May-18 21:00N 66°18' E 014°07'0 0.0
2017-May-18 20:30N 66°18' E 014°07'0 0.0
2017-May-18 20:00N 66°18' E 014°07'0 0.0
2017-May-18 19:30N 66°18' E 014°07'0 0.0
2017-May-18 19:00N 66°18' E 014°07'0 0.0
2017-May-18 18:30N 66°18' E 014°07'0 0.0
2017-May-18 18:00N 66°18' E 014°07'2 4.4
2017-May-18 17:30N 66°18' E 014°02'510.5
2017-May-18 17:00N 66°15' E 013°50'510.7
2017-May-18 16:30N 66°14' E 013°37'510.3
2017-May-18 16:00N 66°14' E 013°24'5 8.9
2017-May-18 15:30N 66°12' E 013°14'5 9.9
2017-May-18 15:00N 66°10' E 013°03'9 9.0
2017-May-18 14:00N 66°13' E 012°42'5 9.5
2017-May-18 13:30N 66°15' E 012°32'4 7.2
2017-May-18 13:00N 66°16' E 012°23'4 8.6
2017-May-18 12:30N 66°17' E 012°13'510.9
2017-May-18 12:00N 66°17' E 011°60'610.9
2017-May-18 11:30N 66°16' E 011°46'  
Track history (hours):
 
Tides and Currents Weather Stations Pressure Air Temp Water Temp Dewpoint Dewpoint Depression Visibility Wind Speed Wind Dir Waves Ship Positions

Wilson Heron

Last reported at 2017-May-28 02:27 UTC. Time now 2017-May-28 02:50 UTC.
Position N 51°05' E 003°45'.

Length 91 m; draft 4.1 m.

Type: Cargo ship. MMSI: 249075000.

Date/timePositionNaut miles runAvg speedWind from/ knotsBaromVisibWave heightAir tempDewpointWater temp
2017-May-28 02:27N 51°05' E 003°45'0 0.0
2017-May-28 01:57N 51°05' E 003°45'0 0.0
2017-May-28 01:30N 51°05' E 003°45'0 0.0
2017-May-28 00:57N 51°05' E 003°45'0 0.0
2017-May-28 00:27N 51°05' E 003°45'0 0.0
2017-May-28 00:00N 51°05' E 003°45'0 0.0
2017-May-27 23:27N 51°05' E 003°45'0 0.0
2017-May-27 23:00N 51°05' E 003°45'0 0.0
2017-May-27 22:27N 51°05' E 003°45'0 0.0
2017-May-27 22:00N 51°05' E 003°45'0 0.0
2017-May-27 21:27N 51°05' E 003°45'0 0.0
2017-May-27 21:00N 51°05' E 003°45'0 0.0
2017-May-27 20:24N 51°05' E 003°45'0 0.0
2017-May-27 19:57N 51°05' E 003°45'0 0.0
2017-May-27 19:27N 51°05' E 003°45'0 0.0
2017-May-27 19:00N 51°05' E 003°45'0 0.0
2017-May-27 18:27N 51°05' E 003°45'0 0.0
2017-May-27 18:00N 51°05' E 003°45'0 0.0
2017-May-27 17:30N 51°05' E 003°45'0 0.0
2017-May-27 16:54N 51°05' E 003°45'0 0.0
2017-May-27 16:30N 51°05' E 003°45'0 0.0
2017-May-27 15:57N 51°05' E 003°45'0 0.0
2017-May-27 15:30N 51°05' E 003°45'0 0.0
2017-May-27 14:57N 51°05' E 003°45'0 0.0
2017-May-27 14:00N 51°05' E 003°45'0 0.0
2017-May-27 13:21N 51°05' E 003°45'0 0.0
2017-May-27 13:01N 51°05' E 003°45'1 1.7
2017-May-27 12:30N 51°06' E 003°45'4 8.1
2017-May-27 12:00N 51°10' E 003°47'4 8.8
2017-May-27 11:30N 51°14' E 003°49'4 8.0
2017-May-27 11:00N 51°18' E 003°50'2 3.4
2017-May-27 10:30N 51°20' E 003°49'1 1.5
2017-May-27 10:00N 51°20' E 003°49'0 0.1
2017-May-27 09:30N 51°20' E 003°49'2 4.8
2017-May-27 09:00N 51°22' E 003°45'3 6.6
2017-May-27 08:30N 51°24' E 003°42'5 9.5
2017-May-27 08:00N 51°26' E 003°35'4 8.3
2017-May-27 07:30N 51°29' E 003°30'510.9
2017-May-27 07:01N 51°33' E 003°25'4 8.8
2017-May-27 06:30N 51°37' E 003°21'510.6
2017-May-27 06:00N 51°42' E 003°17'6 8.8
2017-May-27 05:16N 51°48' E 003°15'3 6.8
2017-May-27 04:51N 51°51' E 003°16'9 5.4
2017-May-27 03:14N 51°59' E 003°20'1 5.3
2017-May-27 02:57N 52°00' E 003°22'2 5.0
2017-May-27 02:29N 52°02' E 003°24'2 4.9
2017-May-27 02:00N 52°03' E 003°28'3 5.3
2017-May-27 01:30N 52°03' E 003°32'3 5.1
2017-May-27 01:00N 52°03' E 003°36'3 5.3
2017-May-27 00:30N 52°03' E 003°40'3 5.2
2017-May-27 00:00N 52°03' E 003°44'3 5.2
2017-May-26 23:30N 52°02' E 003°49'3 5.5
2017-May-26 23:00N 52°02' E 003°53'5 9.7
2017-May-26 22:30N 52°00' E 004°00'713.4
2017-May-26 22:01N 51°57' E 004°10'713.1
2017-May-26 21:31N 51°54' E 004°19'510.8
2017-May-26 21:01N 51°54' E 004°28'0 0.5
2017-May-26 20:28N 51°54' E 004°28'0 0.0
2017-May-26 19:58N 51°54' E 004°28'0 0.0
2017-May-26 19:28N 51°54' E 004°28'0 0.0
2017-May-26 18:58N 51°54' E 004°28'0 0.0
2017-May-26 18:30N 51°54' E 004°28'0 0.2
2017-May-26 18:00N 51°54' E 004°28'3 6.2
2017-May-26 17:31N 51°54' E 004°23'3 5.4
2017-May-26 17:01N 51°52' E 004°20'3 6.9
2017-May-26 16:30N 51°50' E 004°26'2 4.2
2017-May-26 16:00N 51°50' E 004°29'2 4.2
2017-May-26 15:30N 51°50' E 004°32'4 7.8
2017-May-26 15:00N 51°47' E 004°37'6 5.9
2017-May-26 13:59N 51°42' E 004°35'0 0.0
2017-May-26 13:29N 51°42' E 004°35'0 0.0
2017-May-26 12:59N 51°42' E 004°35'0 0.0
2017-May-26 12:29N 51°42' E 004°35'0 0.0
2017-May-26 11:59N 51°42' E 004°35'0 0.0
2017-May-26 11:26N 51°42' E 004°35'0 0.0
2017-May-26 10:59N 51°42' E 004°35'0 0.0
2017-May-26 10:31N 51°42' E 004°35'0 0.0
2017-May-26 09:58N 51°42' E 004°35'0 0.0
2017-May-26 09:30N 51°42' E 004°35'0 0.0
2017-May-26 09:00N 51°42' E 004°35'0 0.0
2017-May-26 08:30N 51°42' E 004°35'0 0.0
2017-May-26 08:00N 51°42' E 004°35'0 0.0
2017-May-26 07:30N 51°42' E 004°35'0 0.0
2017-May-26 07:00N 51°42' E 004°35'0 0.0
2017-May-26 06:30N 51°42' E 004°35'0 0.0
2017-May-26 06:00N 51°42' E 004°35'0 0.0
2017-May-26 05:30N 51°42' E 004°35'0 0.0
2017-May-26 05:00N 51°42' E 004°35'0 0.0
2017-May-26 04:30N 51°42' E 004°35'0 0.0
2017-May-26 04:00N 51°42' E 004°35'0 0.0
2017-May-26 03:30N 51°42' E 004°35'0 0.0
2017-May-26 03:00N 51°42' E 004°35'0 0.0
2017-May-26 02:30N 51°42' E 004°35'0 0.0
2017-May-26 02:00N 51°42' E 004°35'0 0.0
2017-May-26 01:30N 51°42' E 004°35'0 0.0
2017-May-26 01:00N 51°42' E 004°35'0 0.0
2017-May-26 00:30N 51°42' E 004°35'0 0.0
2017-May-26 00:00N 51°42' E 004°35'0 0.0
2017-May-25 23:30N 51°42' E 004°35'0 0.0
2017-May-25 23:00N 51°42' E 004°35'0 0.0
2017-May-25 22:30N 51°42' E 004°35'0 0.0
2017-May-25 22:00N 51°42' E 004°35'0 0.0
2017-May-25 21:30N 51°42' E 004°35'0 0.0
2017-May-25 21:00N 51°42' E 004°35'0 0.0
2017-May-25 20:30N 51°42' E 004°35'0 0.0
2017-May-25 20:00N 51°42' E 004°35'0 0.0
2017-May-25 19:30N 51°42' E 004°35'0 0.0
2017-May-25 19:00N 51°42' E 004°35'0 0.0
2017-May-25 18:30N 51°42' E 004°35'0 0.0
2017-May-25 18:00N 51°42' E 004°35'0 0.0
2017-May-25 17:30N 51°42' E 004°35'0 0.0
2017-May-25 17:00N 51°42' E 004°35'0 0.0
2017-May-25 16:30N 51°42' E 004°35'0 0.0
2017-May-25 16:00N 51°42' E 004°35'0 0.0
2017-May-25 15:30N 51°42' E 004°35'0 0.0
2017-May-25 15:00N 51°42' E 004°35'0 0.0
2017-May-25 14:30N 51°42' E 004°35'0 0.0
2017-May-25 13:30N 51°42' E 004°35'0 0.0
2017-May-25 13:00N 51°42' E 004°35'0 0.0
2017-May-25 12:30N 51°42' E 004°35'0 0.0
2017-May-25 12:00N 51°42' E 004°35'0 0.0
2017-May-25 11:30N 51°42' E 004°35'0 0.0
2017-May-25 11:00N 51°42' E 004°35'0 0.0
2017-May-25 10:30N 51°42' E 004°35'0 0.0
2017-May-25 10:00N 51°42' E 004°35'0 0.0
2017-May-25 09:29N 51°42' E 004°35'0 0.0
2017-May-25 09:00N 51°42' E 004°35'0 0.0
2017-May-25 08:30N 51°42' E 004°35'0 0.0
2017-May-25 08:00N 51°42' E 004°35'0 0.0
2017-May-25 07:30N 51°42' E 004°35'0 0.0
2017-May-25 07:00N 51°42' E 004°35'0 0.0
2017-May-25 06:30N 51°42' E 004°35'0 0.0
2017-May-25 06:00N 51°42' E 004°35'0 0.0
2017-May-25 05:30N 51°42' E 004°35'0 0.0
2017-May-25 05:00N 51°42' E 004°35'0 0.0
2017-May-25 04:30N 51°42' E 004°35'0 0.0
2017-May-25 04:00N 51°42' E 004°35'0 0.0
2017-May-25 03:30N 51°42' E 004°35'0 0.0
2017-May-25 03:00N 51°42' E 004°35'0 0.0
2017-May-25 02:30N 51°42' E 004°35'0 0.0
2017-May-25 02:00N 51°42' E 004°35'0 0.0
2017-May-25 01:30N 51°42' E 004°35'0 0.0
2017-May-25 01:00N 51°42' E 004°35'0 0.0
2017-May-25 00:30N 51°42' E 004°35'0 0.0
2017-May-25 00:00N 51°42' E 004°35'0 0.0
2017-May-24 23:30N 51°42' E 004°35'0 0.0
2017-May-24 23:00N 51°42' E 004°35'0 0.0
2017-May-24 22:30N 51°42' E 004°35'0 0.0
2017-May-24 22:00N 51°42' E 004°35'0 0.0
2017-May-24 21:30N 51°42' E 004°35'0 0.0
2017-May-24 21:00N 51°42' E 004°35'0 0.0
2017-May-24 20:30N 51°42' E 004°35'0 0.0
2017-May-24 19:59N 51°42' E 004°35'0 0.0
2017-May-24 19:30N 51°42' E 004°35'0 0.0
2017-May-24 19:00N 51°42' E 004°35'0 0.0
2017-May-24 18:30N 51°42' E 004°35'0 0.0
2017-May-24 18:00N 51°42' E 004°35'0 0.0
2017-May-24 17:30N 51°42' E 004°35'0 0.0
2017-May-24 17:00N 51°42' E 004°35'0 0.0
2017-May-24 16:30N 51°42' E 004°35'0 0.0
2017-May-24 16:00N 51°42' E 004°35'0 0.0
2017-May-24 15:30N 51°42' E 004°35'0 0.0
2017-May-24 14:57N 51°42' E 004°35'0 0.0
2017-May-24 14:30N 51°42' E 004°35'0 0.0
2017-May-24 13:30N 51°42' E 004°35'0 0.0
2017-May-24 13:00N 51°42' E 004°35'0 0.0
2017-May-24 12:30N 51°42' E 004°35'0 0.0
2017-May-24 12:00N 51°42' E 004°35'0 0.0
2017-May-24 11:29N 51°42' E 004°35'0 0.0
2017-May-24 11:00N 51°42' E 004°35'0 0.0
2017-May-24 10:30N 51°42' E 004°35'0 0.0
2017-May-24 10:00N 51°42' E 004°35'3 5.5
2017-May-24 09:30N 51°44' E 004°38'4 7.9
2017-May-24 09:01N 51°48' E 004°37'4 7.4
2017-May-24 08:30N 51°50' E 004°32'4 8.1
2017-May-24 08:01N 51°50' E 004°26'4 7.6
2017-May-24 07:31N 51°52' E 004°20'4 7.7
2017-May-24 07:00N 51°54' E 004°15'4 8.4
2017-May-24 06:30N 51°57' E 004°10'4 7.9
2017-May-24 06:00N 51°59' E 004°05'4 8.4
2017-May-24 05:30N 51°60' E 003°58'5 9.9
2017-May-24 05:00N 52°00' E 003°50'4 7.4
2017-May-24 04:30N 52°03' E 003°47'510.4
2017-May-24 04:00N 52°09' E 003°46'510.1
2017-May-24 03:29N 52°14' E 003°46'5 9.7
2017-May-24 03:00N 52°18' E 003°48'5 9.5
2017-May-24 02:30N 52°23' E 003°49'5 9.2
2017-May-24 02:00N 52°28' E 003°51'6 9.0
2017-May-24 01:22N 52°33' E 003°53'3 8.5
2017-May-24 01:00N 52°36' E 003°54'4 8.5
2017-May-24 00:30N 52°40' E 003°55'4 8.9
2017-May-24 00:00N 52°45' E 003°56'5 9.4
2017-May-23 23:30N 52°49' E 003°57'4 9.1
2017-May-23 23:00N 52°54' E 003°59'6 9.2
2017-May-23 22:23N 52°59' E 004°02'4 9.9
2017-May-23 22:00N 53°02' E 004°07'510.0
2017-May-23 21:30N 53°05' E 004°13'510.0
2017-May-23 21:00N 53°08' E 004°20'5 9.8
2017-May-23 20:29N 53°12' E 004°25'910.0
2017-May-23 19:34N 53°21' E 004°30'410.3
2017-May-23 19:09N 53°25' E 004°32'210.3
2017-May-23 18:59N 53°26' E 004°33'610.2
2017-May-23 18:27N 53°31' E 004°37'6 9.3
2017-May-23 17:47N 53°37' E 004°40'293 9.0
2017-May-22 09:16N 58°30' E 004°46'2 8.9
2017-May-22 09:00N 58°33' E 004°45'14 9.1
2017-May-22 07:27N 58°47' E 004°42'4 8.7
2017-May-22 07:00N 58°51' E 004°42'105 8.9
2017-May-21 19:08N 60°35' E 004°22'1 8.3
2017-May-21 19:00N 60°36' E 004°21'4 8.2
2017-May-21 18:30N 60°40' E 004°21'4 7.9
2017-May-21 18:00N 60°44' E 004°20'4 8.0
2017-May-21 17:30N 60°48' E 004°19'4 8.1
2017-May-21 17:00N 60°52' E 004°18'4 7.8
2017-May-21 16:30N 60°56' E 004°18'4 7.9
2017-May-21 16:00N 61°00' E 004°17'4 7.9
2017-May-21 15:30N 61°04' E 004°17'4 7.7
2017-May-21 15:00N 61°08' E 004°18'4 7.6
2017-May-21 14:30N 61°12' E 004°18'8 7.7
2017-May-21 13:30N 61°19' E 004°18'4 7.7
2017-May-21 13:00N 61°23' E 004°19'4 8.0
2017-May-21 12:30N 61°27' E 004°20'12 8.4
2017-May-21 11:01N 61°40' E 004°22'0 7.0
2017-May-21 11:00N 61°40' E 004°22'4 8.7
2017-May-21 10:30N 61°44' E 004°25'4 8.9
2017-May-21 10:00N 61°48' E 004°29'4 9.0
2017-May-21 09:30N 61°52' E 004°32'5 9.1
2017-May-21 09:00N 61°57' E 004°35'5 9.2
2017-May-21 08:30N 62°01' E 004°38'5 8.9
2017-May-21 08:00N 62°05' E 004°42'5 9.0
2017-May-21 07:30N 62°09' E 004°45'5 9.3
2017-May-21 07:00N 62°13' E 004°50'5 9.4
2017-May-21 06:30N 62°17' E 004°56'510.0
2017-May-21 06:00N 62°21' E 005°02'5 9.3
2017-May-21 05:30N 62°25' E 005°08'4 8.9
2017-May-21 05:00N 62°28' E 005°14'5 9.0
2017-May-21 04:30N 62°32' E 005°20'4 9.1
2017-May-21 04:00N 62°36' E 005°25'4 8.9
2017-May-21 03:30N 62°39' E 005°31'4 8.7
2017-May-21 03:00N 62°43' E 005°37'4 8.4
2017-May-21 02:30N 62°46' E 005°42'4 8.3
2017-May-21 02:00N 62°49' E 005°48'4 8.2
2017-May-21 01:30N 62°53' E 005°53'4 8.1
2017-May-21 01:00N 62°56' E 005°59'248 9.1
2017-May-19 21:40N 66°16' E 011°41'1 9.0
2017-May-19 21:30N 66°16' E 011°45'5 9.1
2017-May-19 21:00N 66°16' E 011°56'5 9.2
2017-May-19 20:30N 66°17' E 012°07'5 9.2
2017-May-19 20:00N 66°17' E 012°19'5 9.3
2017-May-19 19:30N 66°15' E 012°30'4 8.1
2017-May-19 19:00N 66°14' E 012°39'510.2
2017-May-19 18:30N 66°10' E 012°49'5 9.8
2017-May-19 18:00N 66°10' E 013°01'510.4
2017-May-19 17:30N 66°12' E 013°13'5 9.7
2017-May-19 17:00N 66°14' E 013°24'510.1
2017-May-19 16:30N 66°14' E 013°36'510.0
2017-May-19 16:00N 66°15' E 013°48'510.2
2017-May-19 15:29N 66°17' E 014°01'3 5.7
2017-May-19 15:00N 66°18' E 014°07'0 0.0
2017-May-19 14:00N 66°18' E 014°07'0 0.0
2017-May-19 13:30N 66°18' E 014°07'0 0.0
2017-May-19 13:00N 66°18' E 014°07'0 0.0
2017-May-19 12:30N 66°18' E 014°07'0 0.0
2017-May-19 12:00N 66°18' E 014°07'0 0.0
2017-May-19 11:30N 66°18' E 014°07'0 0.0
2017-May-19 11:00N 66°18' E 014°07'0 0.0
2017-May-19 10:30N 66°18' E 014°07'0 0.0
2017-May-19 10:00N 66°18' E 014°07'0 0.0
2017-May-19 09:30N 66°18' E 014°07'0 0.0
2017-May-19 09:00N 66°18' E 014°07'0 0.0
2017-May-19 08:30N 66°18' E 014°07'0 0.0
2017-May-19 08:00N 66°18' E 014°07'0 0.0
2017-May-19 07:30N 66°18' E 014°07'0 0.0
2017-May-19 07:00N 66°18' E 014°07'0 0.0
2017-May-19 06:30N 66°18' E 014°07'0 0.0
2017-May-19 06:00N 66°18' E 014°07'0 0.0
2017-May-19 05:30N 66°18' E 014°07'0 0.0
2017-May-19 05:00N 66°18' E 014°07'0 0.0
2017-May-19 04:30N 66°18' E 014°07'0 0.0
2017-May-19 04:00N 66°18' E 014°07'0 0.0
2017-May-19 03:30N 66°18' E 014°07'0 0.0
2017-May-19 03:00N 66°18' E 014°07'0 0.0
2017-May-19 02:30N 66°18' E 014°07'0 0.0
2017-May-19 02:00N 66°18' E 014°07'0 0.0
2017-May-19 01:30N 66°18' E 014°07'0 0.0
2017-May-19 01:00N 66°18' E 014°07'0 0.0
2017-May-19 00:30N 66°18' E 014°07'0 0.0
2017-May-19 00:00N 66°18' E 014°07'0 0.0
2017-May-18 23:30N 66°18' E 014°07'0 0.0
2017-May-18 23:00N 66°18' E 014°07'0 0.0
2017-May-18 22:30N 66°18' E 014°07'0 0.0
2017-May-18 21:57N 66°18' E 014°07'0 0.0
2017-May-18 21:30N 66°18' E 014°07'0 0.0
2017-May-18 21:00N 66°18' E 014°07'0 0.0
2017-May-18 20:30N 66°18' E 014°07'0 0.0
2017-May-18 20:00N 66°18' E 014°07'0 0.0
2017-May-18 19:30N 66°18' E 014°07'0 0.0
2017-May-18 19:00N 66°18' E 014°07'0 0.0
2017-May-18 18:30N 66°18' E 014°07'0 0.0
2017-May-18 18:00N 66°18' E 014°07'2 4.4
2017-May-18 17:30N 66°18' E 014°02'510.5
2017-May-18 17:00N 66°15' E 013°50'510.7
2017-May-18 16:30N 66°14' E 013°37'510.3
2017-May-18 16:00N 66°14' E 013°24'5 8.9
2017-May-18 15:30N 66°12' E 013°14'5 9.9
2017-May-18 15:00N 66°10' E 013°03'9 9.0
2017-May-18 14:00N 66°13' E 012°42'5 9.5
2017-May-18 13:30N 66°15' E 012°32'4 7.2
2017-May-18 13:00N 66°16' E 012°23'4 8.6
2017-May-18 12:30N 66°17' E 012°13'510.9
2017-May-18 12:00N 66°17' E 011°60'610.9
2017-May-18 11:30N 66°16' E 011°46'  

Dump ship's entire track history